createdAt,value
2018-09-21T00:01:47.928Z,60336.91
2018-09-21T00:04:16.123Z,60313.54
2018-09-21T00:06:44.287Z,60312.53
2018-09-21T00:09:13.177Z,60304.40
2018-09-21T00:11:41.448Z,60307.45
2018-09-21T00:14:09.651Z,60302.37
2018-09-21T00:16:37.837Z,60322.69
2018-09-21T00:19:06.047Z,60316.59
2018-09-21T00:21:34.252Z,60306.43
2018-09-21T00:24:02.441Z,60312.53
2018-09-21T00:26:30.628Z,60318.62
2018-09-21T00:28:58.815Z,60290.17
2018-09-21T00:31:26.995Z,60310.50
2018-09-21T00:33:55.214Z,60322.69
2018-09-21T00:36:23.400Z,60322.69
2018-09-21T00:38:51.604Z,60327.77
2018-09-21T00:41:19.807Z,60319.64
2018-09-21T00:43:48.010Z,60311.51
2018-09-21T00:46:16.203Z,60297.29
2018-09-21T00:48:44.404Z,60294.24
2018-09-21T00:51:12.591Z,60327.77
2018-09-21T00:53:40.780Z,60292.21
2018-09-21T00:56:08.969Z,60315.57
2018-09-21T00:58:37.163Z,60318.62
2018-09-21T01:01:05.367Z,60305.41
2018-09-21T01:03:33.564Z,60308.46
2018-09-21T01:06:01.747Z,60296.27
2018-09-21T01:08:29.953Z,60297.29
2018-09-21T01:10:58.151Z,60307.45
2018-09-21T01:13:26.392Z,60303.38
2018-09-21T01:15:54.599Z,60333.87
2018-09-21T01:18:22.786Z,60302.37
2018-09-21T01:20:50.977Z,60310.50
2018-09-21T01:23:19.146Z,60306.43
2018-09-21T01:25:47.343Z,60302.37
2018-09-21T01:28:15.529Z,60303.38
2018-09-21T01:30:43.723Z,60295.25
2018-09-21T01:33:11.919Z,60309.48
2018-09-21T01:35:40.167Z,60304.40
2018-09-21T01:38:08.355Z,60327.77
2018-09-21T01:40:36.570Z,60290.17
2018-09-21T01:43:04.764Z,60301.35
2018-09-21T01:45:32.954Z,60300.34
2018-09-21T01:48:01.142Z,60294.24
2018-09-21T01:50:29.386Z,60328.79
2018-09-21T01:52:57.559Z,60324.72
2018-09-21T01:55:25.748Z,60322.69
2018-09-21T01:57:53.938Z,60308.46
2018-09-21T02:00:22.125Z,60314.56
2018-09-21T02:02:50.320Z,60303.38
2018-09-21T02:05:18.504Z,60330.82
2018-09-21T02:07:46.691Z,60318.62
2018-09-21T02:10:15.980Z,60306.43
2018-09-21T02:12:44.163Z,60322.69
2018-09-21T02:15:12.366Z,60307.45
2018-09-21T02:17:40.546Z,60298.30
2018-09-21T02:20:08.730Z,60295.25
2018-09-21T02:22:36.919Z,60318.62
2018-09-21T02:25:05.112Z,60290.17
2018-09-21T02:27:33.299Z,60303.38
2018-09-21T02:30:02.252Z,60282.04
2018-09-21T02:32:30.439Z,60296.27
2018-09-21T02:34:58.832Z,60297.29
2018-09-21T02:37:27.023Z,60298.30
2018-09-21T02:39:55.215Z,60289.16
2018-09-21T02:42:23.413Z,60285.09
2018-09-21T02:44:51.608Z,60299.32
2018-09-21T02:47:19.832Z,60300.34
2018-09-21T02:49:48.020Z,60308.46
2018-09-21T02:52:16.192Z,60278.99
2018-09-21T02:54:44.400Z,60300.34
2018-09-21T02:57:12.580Z,60300.34
2018-09-21T02:59:40.779Z,60308.46
2018-09-21T03:02:08.960Z,60312.53
2018-09-21T03:04:41.303Z,60298.30
2018-09-21T03:07:09.512Z,60297.29
2018-09-21T03:09:37.731Z,60295.25
2018-09-21T03:12:06.100Z,60304.40
2018-09-21T03:14:34.284Z,60292.21
2018-09-21T03:17:02.501Z,60295.25
2018-09-21T03:19:30.823Z,60291.19
2018-09-21T03:21:59.023Z,60305.41
2018-09-21T03:24:27.227Z,60293.22
2018-09-21T03:26:55.412Z,60295.25
2018-09-21T03:29:23.603Z,60301.35
2018-09-21T03:31:51.809Z,60306.43
2018-09-21T03:34:20.022Z,60285.09
2018-09-21T03:36:48.300Z,60303.38
2018-09-21T03:39:16.594Z,60277.98
2018-09-21T03:41:44.789Z,60300.34
2018-09-21T03:44:12.983Z,60323.71
2018-09-21T03:46:41.199Z,60295.25
2018-09-21T03:49:09.384Z,60289.16
2018-09-21T03:51:37.652Z,60321.67
2018-09-21T03:54:05.841Z,60296.27
2018-09-21T03:56:34.026Z,60298.30
2018-09-21T03:59:02.249Z,60276.96
2018-09-21T04:01:30.455Z,60297.29
2018-09-21T04:03:58.656Z,60286.11
2018-09-21T04:06:26.836Z,60302.37
2018-09-21T04:08:55.175Z,60296.27
2018-09-21T04:11:23.610Z,60298.30
2018-09-21T04:13:52.122Z,60268.83
2018-09-21T04:16:20.299Z,60290.17
2018-09-21T04:18:48.523Z,60293.22
2018-09-21T04:21:16.868Z,60297.29
2018-09-21T04:23:45.056Z,60300.34
2018-09-21T04:26:13.259Z,60274.93
2018-09-21T04:28:41.440Z,60308.46
2018-09-21T04:31:09.629Z,60304.40
2018-09-21T04:33:37.814Z,60301.35
2018-09-21T04:36:06.043Z,60303.38
2018-09-21T04:38:34.203Z,60301.35
2018-09-21T04:41:02.393Z,60311.51
2018-09-21T04:43:30.756Z,60290.17
2018-09-21T04:45:58.937Z,60299.32
2018-09-21T04:48:27.145Z,60293.22
2018-09-21T04:50:55.316Z,60293.22
2018-09-21T04:53:23.740Z,60309.48
2018-09-21T04:55:51.944Z,60299.32
2018-09-21T04:58:20.154Z,60278.99
2018-09-21T05:00:48.340Z,60301.35
2018-09-21T05:03:16.541Z,60296.27
2018-09-21T05:05:44.756Z,60297.29
2018-09-21T05:08:12.949Z,60278.99
2018-09-21T05:10:41.144Z,60309.48
2018-09-21T05:13:09.339Z,60296.27
2018-09-21T05:15:37.536Z,60292.21
2018-09-21T05:18:05.748Z,60296.27
2018-09-21T05:20:33.972Z,60296.27
2018-09-21T05:23:02.153Z,60291.19
2018-09-21T05:25:30.355Z,60289.16
2018-09-21T05:27:58.576Z,60293.22
2018-09-21T05:30:26.975Z,60296.27
2018-09-21T05:32:55.161Z,60269.85
2018-09-21T05:35:23.364Z,60304.40
2018-09-21T05:37:51.589Z,60290.17
2018-09-21T05:40:19.804Z,60291.19
2018-09-21T05:42:48.070Z,60310.50
2018-09-21T05:45:16.265Z,60275.95
2018-09-21T05:47:44.451Z,60280.01
2018-09-21T05:50:12.673Z,60285.09
2018-09-21T05:52:40.877Z,60303.38
2018-09-21T05:55:09.059Z,60292.21
2018-09-21T05:57:37.284Z,60283.06
2018-09-21T06:00:05.487Z,60277.98
2018-09-21T06:02:33.700Z,60299.32
2018-09-21T06:05:05.002Z,60286.11
2018-09-21T06:07:33.789Z,60300.34
2018-09-21T06:10:02.133Z,60273.91
2018-09-21T06:12:30.328Z,60310.50
2018-09-21T06:14:58.542Z,60285.09
2018-09-21T06:17:26.755Z,60289.16
2018-09-21T06:19:54.984Z,60305.41
2018-09-21T06:22:23.222Z,60292.21
2018-09-21T06:24:51.440Z,60289.16
2018-09-21T06:27:19.652Z,60289.16
2018-09-21T06:29:48.172Z,60265.79
2018-09-21T06:32:16.390Z,60286.11
2018-09-21T06:34:44.590Z,60316.59
2018-09-21T06:37:12.817Z,60291.19
2018-09-21T06:39:41.030Z,60288.14
2018-09-21T06:42:09.236Z,60291.19
2018-09-21T06:44:37.441Z,60295.25
2018-09-21T06:47:05.661Z,60289.16
2018-09-21T06:49:33.870Z,60272.90
2018-09-21T06:52:02.076Z,60275.95
2018-09-21T06:54:30.288Z,60271.88
2018-09-21T06:56:58.488Z,60277.98
2018-09-21T06:59:26.707Z,60287.12
2018-09-21T07:01:54.968Z,60288.14
2018-09-21T07:04:23.104Z,60291.19
2018-09-21T07:06:51.328Z,60292.21
2018-09-21T07:09:19.551Z,60312.53
2018-09-21T07:11:47.852Z,60284.07
2018-09-21T07:14:16.041Z,60280.01
2018-09-21T07:16:44.257Z,60281.03
2018-09-21T07:19:12.463Z,60287.12
2018-09-21T07:21:40.671Z,60289.16
2018-09-21T07:24:08.910Z,60281.03
2018-09-21T07:26:37.100Z,60287.12
2018-09-21T07:29:05.315Z,60282.04
2018-09-21T07:31:33.600Z,60274.93
2018-09-21T07:34:01.796Z,60292.21
2018-09-21T07:36:30.004Z,60276.96
2018-09-21T07:38:58.214Z,60308.46
2018-09-21T07:41:26.465Z,60259.69
2018-09-21T07:43:54.677Z,60285.09
2018-09-21T07:46:22.883Z,60290.17
2018-09-21T07:48:51.104Z,60275.95
2018-09-21T07:51:19.329Z,60296.27
2018-09-21T07:53:47.596Z,60291.19
2018-09-21T07:56:15.876Z,60286.11
2018-09-21T07:58:44.059Z,60294.24
2018-09-21T08:01:12.257Z,60266.80
2018-09-21T08:03:40.452Z,60297.29
2018-09-21T08:06:08.664Z,60272.90
2018-09-21T08:08:36.868Z,60288.14
2018-09-21T08:11:05.055Z,60288.14
2018-09-21T08:13:33.254Z,60288.14
2018-09-21T08:16:01.451Z,60285.09
2018-09-21T08:18:29.673Z,60254.61
2018-09-21T08:20:57.919Z,60287.12
2018-09-21T08:23:26.116Z,60282.04
2018-09-21T08:25:54.308Z,60298.30
2018-09-21T08:28:22.622Z,60258.67
2018-09-21T08:30:50.896Z,60311.51
2018-09-21T08:33:19.186Z,60281.03
2018-09-21T08:35:47.316Z,60284.07
2018-09-21T08:38:15.519Z,60299.32
2018-09-21T08:40:43.943Z,60293.22
2018-09-21T08:43:12.143Z,60294.24
2018-09-21T08:45:40.397Z,60283.06
2018-09-21T08:48:08.482Z,60273.91
2018-09-21T08:50:36.667Z,60265.79
2018-09-21T08:53:04.855Z,60287.12
2018-09-21T08:55:33.024Z,60274.93
2018-09-21T08:58:01.223Z,60294.24
2018-09-21T09:00:29.399Z,60274.93
2018-09-21T09:02:57.749Z,60300.34
2018-09-21T09:05:26.829Z,60306.43
2018-09-21T09:07:55.012Z,60319.64
2018-09-21T09:10:23.195Z,60330.82
2018-09-21T09:12:51.385Z,60358.25
2018-09-21T09:15:19.571Z,60377.56
2018-09-21T09:17:47.771Z,60384.68
2018-09-21T09:20:15.975Z,60371.46
2018-09-21T09:22:44.171Z,60388.74
2018-09-21T09:25:12.344Z,60378.58
2018-09-21T09:27:40.577Z,60385.69
2018-09-21T09:30:08.922Z,60381.63
2018-09-21T09:32:37.028Z,60399.92
2018-09-21T09:35:05.228Z,60403.98
2018-09-21T09:37:33.421Z,60367.40
2018-09-21T09:40:01.601Z,60388.74
2018-09-21T09:42:29.799Z,60392.80
2018-09-21T09:44:57.999Z,60406.02
2018-09-21T09:47:26.185Z,60386.71
2018-09-21T09:49:54.362Z,60395.86
2018-09-21T09:52:22.542Z,60378.58
2018-09-21T09:54:50.852Z,60426.34
2018-09-21T09:57:18.923Z,60402.97
2018-09-21T09:59:47.108Z,60405.00
2018-09-21T10:02:15.297Z,60396.87
2018-09-21T10:04:43.515Z,60395.86
2018-09-21T10:07:11.704Z,60381.63
2018-09-21T10:09:39.901Z,60399.92
2018-09-21T10:12:08.090Z,60377.56
2018-09-21T10:14:36.288Z,60400.93
2018-09-21T10:17:04.484Z,60406.02
2018-09-21T10:19:32.671Z,60407.03
2018-09-21T10:22:00.864Z,60399.92
2018-09-21T10:24:29.063Z,60409.07
2018-09-21T10:26:57.531Z,60383.66
2018-09-21T10:29:25.607Z,60370.45
2018-09-21T10:31:53.779Z,60402.97
2018-09-21T10:34:21.964Z,60381.63
2018-09-21T10:36:50.259Z,60399.92
2018-09-21T10:39:18.601Z,60364.35
2018-09-21T10:41:46.650Z,60385.69
2018-09-21T10:44:14.828Z,60384.68
2018-09-21T10:46:43.031Z,60378.58
2018-09-21T10:49:11.259Z,60373.50
2018-09-21T10:51:39.431Z,60390.77
2018-09-21T10:54:07.691Z,60408.05
2018-09-21T10:56:35.876Z,60384.68
2018-09-21T10:59:04.061Z,60399.92
2018-09-21T11:01:32.241Z,60393.82
2018-09-21T11:04:00.422Z,60405.00
2018-09-21T11:06:28.636Z,60391.79
2018-09-21T11:08:56.828Z,60391.79
2018-09-21T11:11:25.016Z,60392.80
2018-09-21T11:13:53.208Z,60436.50
2018-09-21T11:16:21.403Z,60393.82
2018-09-21T11:18:49.602Z,60384.68
2018-09-21T11:21:17.800Z,60390.77
2018-09-21T11:23:45.983Z,60399.92
2018-09-21T11:26:14.168Z,60386.71
2018-09-21T11:28:42.347Z,60413.13
2018-09-21T11:31:10.540Z,60389.76
2018-09-21T11:33:38.769Z,60381.63
2018-09-21T11:36:06.984Z,60403.98
2018-09-21T11:38:35.178Z,60405.00
2018-09-21T11:41:03.416Z,60399.92
2018-09-21T11:43:31.599Z,60388.74
2018-09-21T11:45:59.784Z,60390.77
2018-09-21T11:48:27.960Z,60411.10
2018-09-21T11:50:56.160Z,60387.72
2018-09-21T11:53:24.342Z,60390.77
2018-09-21T11:55:52.548Z,60366.39
2018-09-21T11:58:20.783Z,60365.37
2018-09-21T12:00:48.971Z,60370.45
2018-09-21T12:03:17.179Z,60383.66
2018-09-21T12:05:45.376Z,60385.69
2018-09-21T12:08:13.606Z,60371.46
2018-09-21T12:10:41.834Z,60374.52
2018-09-21T12:13:10.487Z,60344.03
2018-09-21T12:15:38.683Z,60394.84
2018-09-21T12:18:06.863Z,60356.22
2018-09-21T12:20:35.055Z,60364.35
2018-09-21T12:23:03.245Z,60377.56
2018-09-21T12:25:31.445Z,60382.64
2018-09-21T12:27:59.631Z,60389.76
2018-09-21T12:30:27.888Z,60388.74
2018-09-21T12:32:56.030Z,60382.64
2018-09-21T12:35:24.323Z,60386.71
2018-09-21T12:37:52.670Z,60376.55
2018-09-21T12:40:20.944Z,60377.56
2018-09-21T12:42:49.144Z,60388.74
2018-09-21T12:45:17.355Z,60381.63
2018-09-21T12:47:45.611Z,60387.72
2018-09-21T12:50:13.895Z,60376.55
2018-09-21T12:52:42.200Z,60392.80
2018-09-21T12:55:10.431Z,60377.56
2018-09-21T12:57:38.741Z,60390.77
2018-09-21T13:00:08.364Z,60397.89
2018-09-21T13:02:37.122Z,60383.66
2018-09-21T13:05:06.500Z,60372.48
2018-09-21T13:07:34.728Z,60384.68
2018-09-21T13:10:03.239Z,60382.64
2018-09-21T13:12:31.717Z,60378.58
2018-09-21T13:15:00.271Z,60384.68
2018-09-21T13:17:28.483Z,60376.55
2018-09-21T13:19:56.676Z,60377.56
2018-09-21T13:22:24.912Z,60370.45
2018-09-21T13:24:53.104Z,60391.79
2018-09-21T13:27:21.291Z,60374.52
2018-09-21T13:29:49.512Z,60378.58
2018-09-21T13:32:17.739Z,60372.48
2018-09-21T13:34:46.173Z,60379.59
2018-09-21T13:37:14.363Z,60365.37
2018-09-21T13:39:42.554Z,60377.56
2018-09-21T13:42:10.747Z,60367.40
2018-09-21T13:44:38.943Z,60396.87
2018-09-21T13:47:07.147Z,60371.46
2018-09-21T13:49:35.334Z,60381.63
2018-09-21T13:52:03.563Z,60398.90
2018-09-21T13:54:31.706Z,60394.84
2018-09-21T13:56:59.879Z,60388.74
2018-09-21T13:59:28.273Z,60374.52
2018-09-21T14:01:56.472Z,60379.59
2018-09-21T14:04:25.888Z,60378.58
2018-09-21T14:06:56.064Z,60356.22
2018-09-21T14:09:24.444Z,60369.43
2018-09-21T14:11:52.740Z,60369.43
2018-09-21T14:14:22.019Z,60379.59
2018-09-21T14:16:50.979Z,60381.63
2018-09-21T14:19:19.447Z,60361.30
2018-09-21T14:21:47.816Z,60376.55
2018-09-21T14:24:16.035Z,60378.58
2018-09-21T14:26:44.307Z,60373.50
2018-09-21T14:29:13.623Z,60371.46
2018-09-21T14:31:42.189Z,60371.46
2018-09-21T14:34:10.675Z,60361.30
2018-09-21T14:36:39.131Z,60370.45
2018-09-21T14:39:10.619Z,60339.96
2018-09-21T14:41:38.956Z,60374.52
2018-09-21T14:44:07.903Z,60358.25
2018-09-21T14:46:36.095Z,60366.39
2018-09-21T14:49:04.320Z,60369.43
2018-09-21T14:51:32.520Z,60354.19
2018-09-21T14:54:00.691Z,60349.11
2018-09-21T14:56:28.874Z,60359.27
2018-09-21T14:58:57.077Z,60367.40
2018-09-21T15:01:25.267Z,60344.03
2018-09-21T15:03:53.475Z,60333.87
2018-09-21T15:06:21.928Z,60368.42
2018-09-21T15:08:50.142Z,60344.03
2018-09-21T15:11:18.432Z,60367.40
2018-09-21T15:13:46.968Z,60351.14
2018-09-21T15:16:15.143Z,60360.29
2018-09-21T15:18:43.379Z,60356.22
2018-09-21T15:21:11.570Z,60361.30
2018-09-21T15:23:39.773Z,60356.22
2018-09-21T15:26:07.971Z,60345.04
2018-09-21T15:28:36.162Z,60340.98
2018-09-21T15:31:04.347Z,60372.48
2018-09-21T15:33:32.543Z,60352.16
2018-09-21T15:36:00.731Z,60355.21
2018-09-21T15:38:28.912Z,60360.29
2018-09-21T15:40:57.163Z,60367.40
2018-09-21T15:43:25.593Z,60342.00
2018-09-21T15:45:53.758Z,60346.06
2018-09-21T15:48:22.014Z,60357.24
2018-09-21T15:50:50.247Z,60367.40
2018-09-21T15:53:18.641Z,60351.14
2018-09-21T15:55:46.915Z,60356.22
2018-09-21T15:58:15.965Z,60372.48
2018-09-21T16:00:44.140Z,60377.56
2018-09-21T16:03:13.368Z,60357.24
2018-09-21T16:05:41.555Z,60345.04
2018-09-21T16:08:09.742Z,60348.09
2018-09-21T16:10:37.932Z,60323.71
2018-09-21T16:13:06.143Z,60368.42
2018-09-21T16:15:34.324Z,60366.39
2018-09-21T16:18:02.517Z,60357.24
2018-09-21T16:20:30.708Z,60363.34
2018-09-21T16:22:58.900Z,60357.24
2018-09-21T16:25:27.226Z,60386.71
2018-09-21T16:27:55.414Z,60355.21
2018-09-21T16:30:23.736Z,60349.11
2018-09-21T16:32:51.987Z,60363.34
2018-09-21T16:35:20.096Z,60388.74
2018-09-21T16:37:48.415Z,60358.25
2018-09-21T16:40:16.596Z,60370.45
2018-09-21T16:42:45.087Z,60369.43
2018-09-21T16:45:13.277Z,60350.12
2018-09-21T16:47:41.462Z,60362.32
2018-09-21T16:50:09.684Z,60355.21
2018-09-21T16:52:37.908Z,60352.16
2018-09-21T16:55:06.112Z,60363.34
2018-09-21T16:57:34.289Z,60356.22
2018-09-21T17:00:02.566Z,60353.18
2018-09-21T17:02:30.751Z,60365.37
2018-09-21T17:04:58.938Z,60360.29
2018-09-21T17:07:27.166Z,60386.71
2018-09-21T17:09:55.379Z,60368.42
2018-09-21T17:12:23.657Z,60363.34
2018-09-21T17:14:51.855Z,60339.96
2018-09-21T17:17:20.040Z,60377.56
2018-09-21T17:19:48.260Z,60367.40
2018-09-21T17:22:16.459Z,60350.12
2018-09-21T17:24:44.632Z,60333.87
2018-09-21T17:27:12.834Z,60352.16
2018-09-21T17:29:41.022Z,60383.66
2018-09-21T17:32:09.289Z,60339.96
2018-09-21T17:34:37.403Z,60327.77
2018-09-21T17:37:05.620Z,60370.45
2018-09-21T17:39:40.390Z,60366.39
2018-09-21T17:42:08.580Z,60351.14
2018-09-21T17:44:36.960Z,60355.21
2018-09-21T17:47:05.197Z,60343.01
2018-09-21T17:49:33.422Z,60370.45
2018-09-21T17:52:01.613Z,60391.79
2018-09-21T17:54:29.798Z,60369.43
2018-09-21T17:56:58.083Z,60363.34
2018-09-21T17:59:26.267Z,60351.14
2018-09-21T18:01:54.445Z,60376.55
2018-09-21T18:04:22.675Z,60365.37
2018-09-21T18:06:50.872Z,60371.46
2018-09-21T18:09:19.079Z,60353.18
2018-09-21T18:11:47.278Z,60340.98
2018-09-21T18:14:15.464Z,60370.45
2018-09-21T18:16:43.707Z,60352.16
2018-09-21T18:19:11.960Z,60392.80
2018-09-21T18:21:40.181Z,60370.45
2018-09-21T18:24:08.555Z,60366.39
2018-09-21T18:26:36.733Z,60373.50
2018-09-21T18:29:04.935Z,60362.32
2018-09-21T18:31:33.132Z,60361.30
2018-09-21T18:34:01.322Z,60378.58
2018-09-21T18:36:29.515Z,60374.52
2018-09-21T18:38:57.691Z,60367.40
2018-09-21T18:41:26.379Z,60371.46
2018-09-21T18:43:54.572Z,60366.39
2018-09-21T18:46:22.764Z,60346.06
2018-09-21T18:48:50.928Z,60352.16
2018-09-21T18:51:19.110Z,60365.37
2018-09-21T18:53:47.336Z,60386.71
2018-09-21T18:56:15.517Z,60350.12
2018-09-21T18:58:43.720Z,60361.30
2018-09-21T19:01:11.897Z,60377.56
2018-09-21T19:03:40.087Z,60376.55
2018-09-21T19:06:09.135Z,60368.42
2018-09-21T19:08:37.343Z,60366.39
2018-09-21T19:11:05.798Z,60366.39
2018-09-21T19:13:33.971Z,60375.53
2018-09-21T19:16:02.166Z,60352.16
2018-09-21T19:18:30.357Z,60370.45
2018-09-21T19:20:58.554Z,60357.24
2018-09-21T19:23:26.743Z,60383.66
2018-09-21T19:25:54.914Z,60357.24
2018-09-21T19:28:23.744Z,60355.21
2018-09-21T19:30:51.923Z,60372.48
2018-09-21T19:33:20.207Z,60374.52
2018-09-21T19:35:48.388Z,60379.59
2018-09-21T19:38:16.619Z,60373.50
2018-09-21T19:40:45.440Z,60378.58
2018-09-21T19:43:13.632Z,60377.56
2018-09-21T19:45:41.936Z,60395.86
2018-09-21T19:48:10.136Z,60383.66
2018-09-21T19:50:38.293Z,60362.32
2018-09-21T19:53:06.589Z,60348.09
2018-09-21T19:55:34.751Z,60368.42
2018-09-21T19:58:03.135Z,60370.45
2018-09-21T20:00:31.322Z,60362.32
2018-09-21T20:02:59.539Z,60386.71
2018-09-21T20:05:27.747Z,60365.37
2018-09-21T20:07:55.940Z,60383.66
2018-09-21T20:10:24.124Z,60364.35
2018-09-21T20:12:52.322Z,60360.29
2018-09-21T20:15:20.679Z,60374.52
2018-09-21T20:17:49.089Z,60356.22
2018-09-21T20:20:17.321Z,60369.43
2018-09-21T20:22:45.508Z,60386.71
2018-09-21T20:25:13.750Z,60358.25
2018-09-21T20:27:41.955Z,60348.09
2018-09-21T20:30:15.564Z,60360.29
2018-09-21T20:32:49.123Z,60378.58
2018-09-21T20:35:17.346Z,60349.11
2018-09-21T20:37:45.540Z,60358.25
2018-09-21T20:40:13.717Z,60350.12
2018-09-21T20:42:41.896Z,60361.30
2018-09-21T20:45:10.411Z,60378.58
2018-09-21T20:47:38.597Z,60389.76
2018-09-21T20:50:07.023Z,60351.14
2018-09-21T20:52:35.303Z,60398.90
2018-09-21T20:55:03.487Z,60364.35
2018-09-21T20:57:31.735Z,60366.39
2018-09-21T20:59:59.944Z,60354.19
2018-09-21T21:02:28.313Z,60384.68
2018-09-21T21:04:56.555Z,60352.16
2018-09-21T21:07:24.765Z,60381.63
2018-09-21T21:09:52.968Z,60365.37
2018-09-21T21:12:21.152Z,60360.29
2018-09-21T21:14:49.342Z,60382.64
2018-09-21T21:17:17.529Z,60384.68
2018-09-21T21:19:45.708Z,60369.43
2018-09-21T21:22:13.977Z,60370.45
2018-09-21T21:24:42.103Z,60369.43
2018-09-21T21:27:10.280Z,60375.53
2018-09-21T21:29:38.468Z,60381.63
2018-09-21T21:32:06.672Z,60382.64
2018-09-21T21:34:35.147Z,60373.50
2018-09-21T21:37:03.329Z,60381.63
2018-09-21T21:39:31.507Z,60370.45
2018-09-21T21:41:59.785Z,60371.46
2018-09-21T21:44:27.923Z,60357.24
2018-09-21T21:46:56.117Z,60357.24
2018-09-21T21:49:24.326Z,60382.64
2018-09-21T21:51:52.513Z,60366.39
2018-09-21T21:54:20.695Z,60397.89
2018-09-21T21:56:48.876Z,60371.46
2018-09-21T21:59:17.080Z,60367.40
2018-09-21T22:01:45.989Z,60373.50
2018-09-21T22:04:14.883Z,60386.71
2018-09-21T22:06:43.082Z,60379.59
2018-09-21T22:09:12.261Z,60355.21
2018-09-21T22:11:45.811Z,60392.80
2018-09-21T22:14:14.557Z,60397.89
2018-09-21T22:16:42.771Z,60378.58
2018-09-21T22:19:11.513Z,60371.46
2018-09-21T22:21:39.750Z,60355.21
2018-09-21T22:24:07.935Z,60415.16
2018-09-21T22:26:36.157Z,60370.45
2018-09-21T22:29:04.314Z,60372.48
2018-09-21T22:31:32.501Z,60375.53
2018-09-21T22:34:00.703Z,60371.46
2018-09-21T22:36:28.919Z,60380.61
2018-09-21T22:38:57.096Z,60369.43
2018-09-21T22:41:25.299Z,60388.74
2018-09-21T22:43:53.468Z,60381.63
2018-09-21T22:46:21.932Z,60397.89
2018-09-21T22:48:50.149Z,60383.66
2018-09-21T22:51:18.605Z,60386.71
2018-09-21T22:53:46.783Z,60413.13
2018-09-21T22:56:14.974Z,60400.93
2018-09-21T22:58:43.164Z,60397.89
2018-09-21T23:01:11.812Z,60358.25
2018-09-21T23:03:40.091Z,60365.37
2018-09-21T23:06:08.568Z,60378.58
2018-09-21T23:08:36.802Z,60401.95
2018-09-21T23:11:05.035Z,60382.64
2018-09-21T23:13:33.223Z,60377.56
2018-09-21T23:16:01.414Z,60403.98
2018-09-21T23:18:29.612Z,60394.84
2018-09-21T23:20:57.788Z,60377.56
2018-09-21T23:23:26.195Z,60403.98
2018-09-21T23:25:54.372Z,60371.46
2018-09-21T23:28:22.555Z,60381.63
2018-09-21T23:30:51.073Z,60370.45
2018-09-21T23:33:19.255Z,60389.76
2018-09-21T23:35:47.475Z,60391.79
2018-09-21T23:38:15.657Z,60400.93
2018-09-21T23:40:43.844Z,60387.72
2018-09-21T23:43:12.063Z,60382.64
2018-09-21T23:45:40.252Z,60370.45
2018-09-21T23:48:08.444Z,60397.89
2018-09-21T23:50:36.642Z,60365.37
2018-09-21T23:53:04.815Z,60375.53
2018-09-21T23:55:33.020Z,60396.87
2018-09-21T23:58:01.203Z,60354.19
